Time;durP1;ratioP1;P1;durP2;ratioP2;P2;SDS_P1;SDS_P2;PMS_P1;PMS_P2;Temp;Humidity;BMP_temperature;BMP_pressure;BME280_temperature;BME280_humidity;BME280_pressure;Samples;Min_cycle;Max_cycle;Signal;HPM_P1;HPM_P2
2021/12/30 00:00:55;;;;;;;58.53;7.67;;;;;;;;;;5054326;28;20869;-70
2021/12/30 00:03:21;;;;;;;56.80;7.43;;;;;;;;;;5054397;28;20287;-70
2021/12/30 00:05:48;;;;;;;68.23;8.13;;;;;;;;;;5054586;28;20296;-70
2021/12/30 00:08:14;;;;;;;65.30;9.27;;;;;;;;;;5054798;28;20284;-70
2021/12/30 00:10:41;;;;;;;61.20;8.77;;;;;;;;;;5054486;28;20280;-70
2021/12/30 00:13:08;;;;;;;58.43;9.17;;;;;;;;;;5054086;28;20275;-70
2021/12/30 00:15:35;;;;;;;63.47;8.80;;;;;;;;;;5054431;28;20279;-70
2021/12/30 00:18:02;;;;;;;64.37;8.77;;;;;;;;;;5054088;28;20418;-70
2021/12/30 00:20:28;;;;;;;68.83;8.40;;;;;;;;;;5054432;28;20338;-70
2021/12/30 00:22:54;;;;;;;61.23;9.63;;;;;;;;;;5052276;28;20631;-70
2021/12/30 00:25:20;;;;;;;69.87;9.13;;;;;;;;;;5053427;28;20483;-70
2021/12/30 00:27:46;;;;;;;65.70;9.33;;;;;;;;;;5053113;28;20283;-70
2021/12/30 00:30:13;;;;;;;71.27;10.30;;;;;;;;;;5054049;28;20405;-70
2021/12/30 00:32:39;;;;;;;61.97;8.03;;;;;;;;;;5036385;28;20288;-70
2021/12/30 00:35:06;;;;;;;65.80;10.27;;;;;;;;;;5052497;28;20282;-70
2021/12/30 00:37:33;;;;;;;60.47;7.77;;;;;;;;;;5054101;28;20372;-70
2021/12/30 00:39:59;;;;;;;65.00;9.23;;;;;;;;;;5053501;28;20342;-70
2021/12/30 00:42:25;;;;;;;69.77;10.00;;;;;;;;;;5053776;28;20623;-71
2021/12/30 00:44:52;;;;;;;68.83;9.07;;;;;;;;;;5053390;28;20276;-70
2021/12/30 00:47:18;;;;;;;65.67;9.33;;;;;;;;;;5053329;28;20767;-70
2021/12/30 00:49:45;;;;;;;64.40;9.97;;;;;;;;;;5053703;28;20278;-70
2021/12/30 00:52:11;;;;;;;62.90;8.30;;;;;;;;;;5053245;28;20375;-70
2021/12/30 00:54:37;;;;;;;66.07;8.10;;;;;;;;;;5053537;28;20361;-70
2021/12/30 00:57:03;;;;;;;49.70;7.77;;;;;;;;;;5053171;28;20275;-70
2021/12/30 00:59:29;;;;;;;73.23;10.07;;;;;;;;;;5052409;28;20382;-70
2021/12/30 01:01:55;;;;;;;63.77;8.13;;;;;;;;;;5053016;28;20287;-70
2021/12/30 01:04:22;;;;;;;52.97;9.20;;;;;;;;;;5053401;28;20631;-70
2021/12/30 01:06:48;;;;;;;58.23;9.07;;;;;;;;;;5053276;28;20286;-70
2021/12/30 01:09:14;;;;;;;60.43;9.37;;;;;;;;;;5052879;28;20276;-70
2021/12/30 01:11:40;;;;;;;64.60;8.93;;;;;;;;;;5051771;28;20313;-70
2021/12/30 01:14:17;;;;;;;64.30;10.37;;;;;;;;;;5052871;28;20367;-70
2021/12/30 01:16:46;;;;;;;59.63;8.90;;;;;;;;;;5053237;28;20271;-70
2021/12/30 01:21:58;;;;;;;55.88;8.02;;;;;;;;;;5051951;28;20319;-70
2021/12/30 01:24:25;;;;;;;60.80;8.07;;;;;;;;;;5052988;28;20045;-70
2021/12/30 01:26:52;;;;;;;59.20;7.93;;;;;;;;;;5052630;28;20759;-70
2021/12/30 01:29:18;;;;;;;50.57;7.37;;;;;;;;;;5052670;28;20275;-70
2021/12/30 01:31:44;;;;;;;59.33;9.60;;;;;;;;;;5051721;28;20279;-70
2021/12/30 01:34:11;;;;;;;45.40;7.43;;;;;;;;;;5051735;28;20276;-70
2021/12/30 01:36:38;;;;;;;50.60;7.23;;;;;;;;;;5052798;28;20283;-70
2021/12/30 01:39:04;;;;;;;63.73;8.03;;;;;;;;;;5052421;28;20287;-70
2021/12/30 01:41:30;;;;;;;59.87;9.17;;;;;;;;;;5052760;28;20287;-69
2021/12/30 01:43:56;;;;;;;46.77;7.57;;;;;;;;;;5052404;28;20280;-70
2021/12/30 01:46:22;;;;;;;52.07;7.10;;;;;;;;;;5051415;28;20290;-69
2021/12/30 01:48:48;;;;;;;48.70;7.10;;;;;;;;;;5052399;28;20763;-69
2021/12/30 01:51:15;;;;;;;71.07;9.33;;;;;;;;;;5052335;28;20271;-69
2021/12/30 01:53:41;;;;;;;57.67;8.83;;;;;;;;;;5052728;28;20291;-70
2021/12/30 01:56:07;;;;;;;60.90;8.93;;;;;;;;;;5052241;28;20287;-70
2021/12/30 01:58:36;;;;;;;57.13;8.00;;;;;;;;;;5052556;28;20283;-70
2021/12/30 02:01:02;;;;;;;63.20;8.27;;;;;;;;;;5050923;28;20366;-70
2021/12/30 02:03:28;;;;;;;52.73;7.77;;;;;;;;;;5051404;28;20364;-70
2021/12/30 02:05:54;;;;;;;59.77;9.17;;;;;;;;;;5052819;28;20371;-70
2021/12/30 02:08:21;;;;;;;56.60;7.93;;;;;;;;;;5052151;28;20363;-70
2021/12/30 02:10:48;;;;;;;60.80;9.10;;;;;;;;;;5052419;28;20363;-70
2021/12/30 02:13:14;;;;;;;61.67;9.47;;;;;;;;;;5052111;28;20310;-70
2021/12/30 02:15:41;;;;;;;51.77;9.53;;;;;;;;;;5052391;28;20283;-70
2021/12/30 02:18:07;;;;;;;60.90;8.90;;;;;;;;;;5052098;28;20420;-70
2021/12/30 02:20:47;;;;;;;61.90;10.23;;;;;;;;;;5052436;28;20442;-69
2021/12/30 02:23:14;;;;;;;59.30;9.80;;;;;;;;;;5051849;28;20632;-70
2021/12/30 02:25:41;;;;;;;61.03;9.37;;;;;;;;;;5052383;28;20276;-70
2021/12/30 02:28:08;;;;;;;63.07;9.60;;;;;;;;;;5052043;28;20283;-70
2021/12/30 02:30:34;;;;;;;60.10;9.00;;;;;;;;;;5052350;28;20667;-70
2021/12/30 02:33:00;;;;;;;61.33;9.60;;;;;;;;;;5051967;28;20752;-72
2021/12/30 02:35:27;;;;;;;67.83;9.60;;;;;;;;;;5052330;28;20291;-70
2021/12/30 02:37:53;;;;;;;73.90;9.93;;;;;;;;;;5052331;28;20622;-70
2021/12/30 02:40:31;;;;;;;69.83;9.33;;;;;;;;;;5051676;28;20775;-70
2021/12/30 02:42:57;;;;;;;67.10;10.00;;;;;;;;;;5052409;28;20272;-70
2021/12/30 02:45:24;;;;;;;67.63;11.57;;;;;;;;;;5054061;28;20631;-70
2021/12/30 02:47:50;;;;;;;79.37;11.70;;;;;;;;;;5054777;28;20319;-70
2021/12/30 02:50:16;;;;;;;78.27;11.93;;;;;;;;;;5055638;28;20319;-70
2021/12/30 02:52:42;;;;;;;71.83;11.47;;;;;;;;;;5054886;28;20315;-70
2021/12/30 02:55:08;;;;;;;79.17;12.23;;;;;;;;;;5055401;28;20279;-70
2021/12/30 02:57:34;;;;;;;89.17;12.20;;;;;;;;;;5055641;28;20355;-70
2021/12/30 03:00:01;;;;;;;87.97;13.40;;;;;;;;;;5055465;28;20381;-70
2021/12/30 03:02:27;;;;;;;78.57;12.33;;;;;;;;;;5055262;28;20319;-70
2021/12/30 03:04:53;;;;;;;78.00;13.43;;;;;;;;;;5037700;28;20374;-70
2021/12/30 03:07:19;;;;;;;74.23;13.27;;;;;;;;;;5055270;28;20279;-70
2021/12/30 03:09:46;;;;;;;68.77;13.23;;;;;;;;;;5055462;28;20279;-70
2021/12/30 03:12:12;;;;;;;79.03;13.30;;;;;;;;;;5055165;28;20275;-70
2021/12/30 03:14:42;;;;;;;76.67;13.63;;;;;;;;;;5055294;28;20285;-70
2021/12/30 03:17:09;;;;;;;88.97;14.33;;;;;;;;;;5055110;28;20275;-70
2021/12/30 03:19:35;;;;;;;79.37;13.20;;;;;;;;;;5055219;28;20292;-70
2021/12/30 03:22:01;;;;;;;72.90;12.87;;;;;;;;;;5055284;28;20286;-70
2021/12/30 03:24:28;;;;;;;83.03;14.80;;;;;;;;;;5054909;28;20280;-70
2021/12/30 03:26:54;;;;;;;78.37;13.23;;;;;;;;;;5055308;28;20279;-70
2021/12/30 03:29:20;;;;;;;64.17;11.47;;;;;;;;;;5054935;28;20745;-70
2021/12/30 03:31:47;;;;;;;74.47;11.73;;;;;;;;;;5055308;28;20367;-70
2021/12/30 03:34:14;;;;;;;79.73;14.30;;;;;;;;;;5054873;28;20367;-70
2021/12/30 03:36:40;;;;;;;76.67;12.77;;;;;;;;;;5055137;28;20348;-70
2021/12/30 03:39:07;;;;;;;70.57;13.00;;;;;;;;;;5054790;28;20877;-70
2021/12/30 03:41:34;;;;;;;63.93;13.47;;;;;;;;;;5054902;28;20600;-70
2021/12/30 03:44:01;;;;;;;85.53;13.30;;;;;;;;;;5054839;28;20283;-69
2021/12/30 03:46:28;;;;;;;78.40;12.93;;;;;;;;;;5054409;28;20363;-70
2021/12/30 03:48:54;;;;;;;67.13;13.20;;;;;;;;;;5053747;28;20327;-69
2021/12/30 03:51:24;;;;;;;76.33;13.50;;;;;;;;;;5053324;28;20304;-70
2021/12/30 03:53:52;;;;;;;82.50;13.80;;;;;;;;;;5053406;28;20333;-69
2021/12/30 03:56:20;;;;;;;76.37;14.17;;;;;;;;;;5053146;28;20326;-69
2021/12/30 03:58:46;;;;;;;85.43;14.90;;;;;;;;;;5054620;28;20280;-69
2021/12/30 04:01:14;;;;;;;83.87;12.50;;;;;;;;;;5053827;28;20315;-70
2021/12/30 04:03:40;;;;;;;73.13;13.30;;;;;;;;;;5054776;28;20344;-69
2021/12/30 04:06:06;;;;;;;82.00;15.17;;;;;;;;;;5054336;28;20292;-69
2021/12/30 04:08:33;;;;;;;90.63;14.57;;;;;;;;;;5054124;28;20330;-69
2021/12/30 04:10:59;;;;;;;91.40;15.70;;;;;;;;;;5054565;28;20276;-69
2021/12/30 04:13:25;;;;;;;93.97;16.57;;;;;;;;;;5054143;28;20315;-70
2021/12/30 04:15:52;;;;;;;83.30;15.27;;;;;;;;;;5054033;28;20753;-69
2021/12/30 04:18:18;;;;;;;98.50;17.53;;;;;;;;;;5053978;28;20402;-70
2021/12/30 04:20:46;;;;;;;99.63;16.93;;;;;;;;;;5053829;28;20295;-70
2021/12/30 04:23:12;;;;;;;100.70;16.37;;;;;;;;;;5054082;28;20315;-71
2021/12/30 04:25:39;;;;;;;96.33;15.97;;;;;;;;;;5054022;28;20362;-70
2021/12/30 04:28:05;;;;;;;93.57;16.63;;;;;;;;;;5054027;28;20283;-70
2021/12/30 04:30:31;;;;;;;100.13;15.37;;;;;;;;;;5053634;28;20360;-70
2021/12/30 04:32:57;;;;;;;97.50;17.90;;;;;;;;;;5053995;28;20306;-69
2021/12/30 04:35:24;;;;;;;89.80;16.03;;;;;;;;;;5053668;28;20280;-70
2021/12/30 04:37:50;;;;;;;108.77;17.53;;;;;;;;;;5053882;28;20322;-70
2021/12/30 04:40:16;;;;;;;103.47;17.23;;;;;;;;;;5052483;28;20307;-70
2021/12/30 04:42:43;;;;;;;102.37;18.37;;;;;;;;;;5053869;28;20287;-70
2021/12/30 04:45:10;;;;;;;112.97;18.20;;;;;;;;;;5053700;28;20366;-70
2021/12/30 04:47:38;;;;;;;99.60;18.93;;;;;;;;;;5053371;28;20284;-70
2021/12/30 04:50:05;;;;;;;119.07;20.37;;;;;;;;;;5052698;28;20619;-70
2021/12/30 04:52:31;;;;;;;124.33;23.13;;;;;;;;;;5053186;28;20366;-70
2021/12/30 04:54:58;;;;;;;115.80;23.27;;;;;;;;;;5053713;28;20413;-70
2021/12/30 04:57:24;;;;;;;126.20;23.90;;;;;;;;;;5053193;28;20276;-70
2021/12/30 04:59:50;;;;;;;138.80;28.17;;;;;;;;;;5053369;28;20311;-70
2021/12/30 05:02:17;;;;;;;165.40;31.93;;;;;;;;;;5053026;28;20695;-72
2021/12/30 05:04:43;;;;;;;162.80;33.13;;;;;;;;;;5053045;28;20287;-70
2021/12/30 05:07:09;;;;;;;169.00;32.27;;;;;;;;;;5052131;28;20322;-70
2021/12/30 05:09:35;;;;;;;149.10;33.03;;;;;;;;;;5052989;28;20284;-70
2021/12/30 05:12:02;;;;;;;147.27;31.73;;;;;;;;;;5053315;28;20321;-70
2021/12/30 05:14:28;;;;;;;120.30;29.93;;;;;;;;;;5052920;28;20313;-70
2021/12/30 05:16:55;;;;;;;149.70;31.87;;;;;;;;;;5053221;28;20275;-70
2021/12/30 05:19:22;;;;;;;128.50;29.87;;;;;;;;;;5052827;28;20299;-70
2021/12/30 05:21:48;;;;;;;126.40;29.43;;;;;;;;;;5053219;28;20283;-70
2021/12/30 05:24:15;;;;;;;126.50;28.73;;;;;;;;;;5053099;28;20283;-69
2021/12/30 05:26:41;;;;;;;117.23;28.17;;;;;;;;;;5052745;28;20289;-69
2021/12/30 05:29:09;;;;;;;116.60;28.93;;;;;;;;;;5053012;28;20276;-69
2021/12/30 05:31:35;;;;;;;114.63;29.30;;;;;;;;;;5052617;28;20430;-69
2021/12/30 05:34:01;;;;;;;111.07;27.27;;;;;;;;;;5052930;28;20417;-69
2021/12/30 05:36:28;;;;;;;114.07;27.10;;;;;;;;;;5052680;28;20276;-70
2021/12/30 05:38:54;;;;;;;124.63;29.03;;;;;;;;;;5053161;28;20328;-69
2021/12/30 05:41:22;;;;;;;118.53;26.87;;;;;;;;;;5051619;28;20311;-71
2021/12/30 05:43:48;;;;;;;108.30;26.20;;;;;;;;;;5052925;28;20279;-70
2021/12/30 05:46:14;;;;;;;110.93;27.53;;;;;;;;;;5051633;28;20703;-70
2021/12/30 05:48:41;;;;;;;116.90;28.90;;;;;;;;;;5052603;28;20358;-70
2021/12/30 05:51:07;;;;;;;94.50;25.53;;;;;;;;;;5052762;28;20367;-70
2021/12/30 05:53:33;;;;;;;102.33;26.57;;;;;;;;;;5052525;28;20322;-70
2021/12/30 05:55:59;;;;;;;112.80;27.63;;;;;;;;;;5052739;28;20454;-70
2021/12/30 05:58:25;;;;;;;107.10;26.73;;;;;;;;;;5052123;28;20778;-70
2021/12/30 06:00:52;;;;;;;119.73;30.77;;;;;;;;;;5052607;28;20306;-70
2021/12/30 06:03:19;;;;;;;114.10;28.93;;;;;;;;;;5052664;28;20340;-70
2021/12/30 06:05:50;;;;;;;114.97;30.77;;;;;;;;;;5052493;28;20299;-70
2021/12/30 06:08:16;;;;;;;129.07;31.83;;;;;;;;;;5052840;28;20634;-70
2021/12/30 06:10:43;;;;;;;142.37;33.23;;;;;;;;;;5052241;28;20309;-70
2021/12/30 06:13:09;;;;;;;148.07;33.53;;;;;;;;;;5051509;28;20763;-70
2021/12/30 06:15:36;;;;;;;140.10;32.23;;;;;;;;;;5052177;28;20284;-70
2021/12/30 06:18:02;;;;;;;179.80;35.73;;;;;;;;;;5051487;28;20291;-70
2021/12/30 06:20:30;;;;;;;186.73;35.23;;;;;;;;;;5053431;28;20295;-70
2021/12/30 06:22:56;;;;;;;155.80;32.17;;;;;;;;;;5056662;28;20630;-70
2021/12/30 06:25:23;;;;;;;130.27;31.60;;;;;;;;;;5056476;28;20310;-70
2021/12/30 06:27:49;;;;;;;139.90;32.10;;;;;;;;;;5056090;28;20288;-70
2021/12/30 06:30:15;;;;;;;116.97;27.90;;;;;;;;;;5056341;28;20354;-70
2021/12/30 06:32:41;;;;;;;98.87;25.27;;;;;;;;;;5056063;28;20326;-70
2021/12/30 06:35:08;;;;;;;91.30;25.13;;;;;;;;;;5056348;28;20282;-70
2021/12/30 06:37:35;;;;;;;74.00;21.63;;;;;;;;;;5055985;28;20287;-70
2021/12/30 06:40:02;;;;;;;69.50;20.37;;;;;;;;;;5054963;28;20335;-70
2021/12/30 06:42:28;;;;;;;91.17;21.03;;;;;;;;;;5055930;28;20373;-71
2021/12/30 06:44:54;;;;;;;63.70;18.77;;;;;;;;;;5056129;28;20280;-69
2021/12/30 06:47:20;;;;;;;69.73;19.00;;;;;;;;;;5056150;28;20272;-69
2021/12/30 06:49:46;;;;;;;62.60;18.23;;;;;;;;;;5056071;28;20618;-70
2021/12/30 06:52:13;;;;;;;54.37;17.50;;;;;;;;;;5055949;28;20283;-69
2021/12/30 06:54:39;;;;;;;67.90;18.00;;;;;;;;;;5055673;28;20279;-70
2021/12/30 06:57:06;;;;;;;51.27;17.47;;;;;;;;;;5055637;28;20759;-70
2021/12/30 06:59:35;;;;;;;55.90;18.00;;;;;;;;;;5054516;28;20307;-71
2021/12/30 07:02:01;;;;;;;45.73;17.40;;;;;;;;;;5055452;28;20338;-70
2021/12/30 07:04:27;;;;;;;51.70;16.97;;;;;;;;;;5055512;28;20284;-70
2021/12/30 07:06:54;;;;;;;53.73;17.63;;;;;;;;;;5054426;28;20345;-70
2021/12/30 07:09:20;;;;;;;53.20;17.40;;;;;;;;;;5055581;28;20286;-69
2021/12/30 07:11:50;;;;;;;43.13;15.73;;;;;;;;;;5055315;28;20359;-69
2021/12/30 07:14:20;;;;;;;50.00;17.13;;;;;;;;;;5054530;28;20279;-70
2021/12/30 07:16:46;;;;;;;41.87;15.67;;;;;;;;;;5055003;28;20279;-70
2021/12/30 07:19:13;;;;;;;41.60;16.53;;;;;;;;;;5054414;28;20335;-70
2021/12/30 07:21:40;;;;;;;34.23;15.30;;;;;;;;;;5055105;28;20314;-70
2021/12/30 07:24:06;;;;;;;47.40;16.90;;;;;;;;;;5055294;28;20433;-70
2021/12/30 07:26:32;;;;;;;41.80;17.53;;;;;;;;;;5055192;28;20362;-72
2021/12/30 07:28:59;;;;;;;45.70;18.23;;;;;;;;;;5055217;28;20279;-70
2021/12/30 07:31:25;;;;;;;43.83;18.17;;;;;;;;;;5053899;28;20366;-69
2021/12/30 07:33:52;;;;;;;51.53;20.90;;;;;;;;;;5054836;28;20310;-69
2021/12/30 07:36:18;;;;;;;42.53;18.00;;;;;;;;;;5055099;28;20358;-69
2021/12/30 07:38:44;;;;;;;52.00;21.17;;;;;;;;;;5036876;28;20298;-69
2021/12/30 07:41:10;;;;;;;50.73;20.03;;;;;;;;;;5054928;28;20713;-69
2021/12/30 07:43:36;;;;;;;44.27;19.03;;;;;;;;;;5054632;28;20275;-71
2021/12/30 07:46:02;;;;;;;53.63;21.47;;;;;;;;;;5054947;28;20333;-70
2021/12/30 07:48:29;;;;;;;43.57;20.87;;;;;;;;;;5055010;28;20702;-69
2021/12/30 07:50:55;;;;;;;36.20;18.23;;;;;;;;;;5054607;28;20341;-70
2021/12/30 07:53:21;;;;;;;36.97;18.73;;;;;;;;;;5054761;28;20315;-71
2021/12/30 07:55:47;;;;;;;37.70;19.00;;;;;;;;;;5053525;28;20280;-81
2021/12/30 07:58:13;;;;;;;43.73;20.30;;;;;;;;;;5053513;28;20283;-73
2021/12/30 08:00:40;;;;;;;41.80;20.10;;;;;;;;;;5052898;28;20304;-71
2021/12/30 08:03:06;;;;;;;41.17;19.23;;;;;;;;;;5054142;28;20290;-71
2021/12/30 08:05:32;;;;;;;44.10;18.60;;;;;;;;;;5052918;28;20288;-70
2021/12/30 08:08:08;;;;;;;33.07;16.37;;;;;;;;;;5054296;28;20287;-70
2021/12/30 08:10:35;;;;;;;31.13;14.67;;;;;;;;;;5054924;28;20322;-70
2021/12/30 08:13:01;;;;;;;39.90;16.40;;;;;;;;;;5054412;28;20345;-70
2021/12/30 08:15:28;;;;;;;34.73;14.43;;;;;;;;;;5054951;28;20290;-70
2021/12/30 08:17:54;;;;;;;36.53;14.30;;;;;;;;;;5053435;28;20631;-70
2021/12/30 08:20:22;;;;;;;31.53;13.83;;;;;;;;;;5054453;28;20306;-70
2021/12/30 08:22:48;;;;;;;33.37;14.57;;;;;;;;;;5054254;28;20279;-70
2021/12/30 08:25:14;;;;;;;36.20;14.73;;;;;;;;;;5054452;28;20286;-70
2021/12/30 08:27:41;;;;;;;37.17;14.33;;;;;;;;;;5054178;28;20284;-70
2021/12/30 08:30:10;;;;;;;31.87;12.97;;;;;;;;;;5053491;28;20327;-70
2021/12/30 08:32:36;;;;;;;32.27;11.57;;;;;;;;;;5054327;28;20279;-70
2021/12/30 08:35:02;;;;;;;30.07;11.43;;;;;;;;;;5054025;28;20284;-70
2021/12/30 08:37:28;;;;;;;32.23;10.57;;;;;;;;;;5054314;28;20276;-70
2021/12/30 08:39:55;;;;;;;31.17;10.10;;;;;;;;;;5053839;28;20303;-70
2021/12/30 08:42:24;;;;;;;32.87;10.13;;;;;;;;;;5052658;28;20375;-70
2021/12/30 08:44:50;;;;;;;30.80;9.80;;;;;;;;;;5053782;28;20280;-70
2021/12/30 08:47:17;;;;;;;28.43;8.77;;;;;;;;;;5054013;28;20281;-70
2021/12/30 08:49:46;;;;;;;42.13;10.53;;;;;;;;;;5036133;28;20283;-70
2021/12/30 08:52:16;;;;;;;32.40;9.43;;;;;;;;;;5054137;28;20287;-70
2021/12/30 08:54:42;;;;;;;34.50;9.03;;;;;;;;;;5053606;28;20767;-70
2021/12/30 08:57:08;;;;;;;33.03;7.87;;;;;;;;;;5054027;28;20341;-70
2021/12/30 08:59:35;;;;;;;25.40;6.80;;;;;;;;;;5053741;28;20294;-70
2021/12/30 09:02:02;;;;;;;32.33;7.73;;;;;;;;;;5053529;28;20283;-70
2021/12/30 09:04:28;;;;;;;28.47;6.77;;;;;;;;;;5053691;28;20294;-70
2021/12/30 09:06:54;;;;;;;34.10;7.10;;;;;;;;;;5053045;28;20345;-70
2021/12/30 09:09:20;;;;;;;28.63;6.53;;;;;;;;;;5054111;28;20321;-70
2021/12/30 09:11:47;;;;;;;34.33;6.77;;;;;;;;;;5053311;28;20759;-71
2021/12/30 09:14:14;;;;;;;28.17;6.00;;;;;;;;;;5053727;28;20291;-70
2021/12/30 09:16:40;;;;;;;28.43;6.03;;;;;;;;;;5053511;28;20314;-70
2021/12/30 09:19:07;;;;;;;28.23;6.87;;;;;;;;;;5052274;28;20508;-70
2021/12/30 09:21:43;;;;;;;29.83;7.23;;;;;;;;;;5053493;28;20311;-70
2021/12/30 09:24:10;;;;;;;32.37;7.07;;;;;;;;;;5053555;28;20401;-70
2021/12/30 09:26:37;;;;;;;29.60;6.53;;;;;;;;;;5053010;28;20565;-70
2021/12/30 09:29:10;;;;;;;32.03;6.83;;;;;;;;;;5053053;28;20295;-70
2021/12/30 09:31:37;;;;;;;25.07;6.23;;;;;;;;;;5053662;28;20271;-70
2021/12/30 09:34:04;;;;;;;33.10;6.87;;;;;;;;;;5053418;28;20671;-70
2021/12/30 09:36:30;;;;;;;36.57;7.37;;;;;;;;;;5053286;28;20275;-70
2021/12/30 09:38:56;;;;;;;30.97;6.70;;;;;;;;;;5052910;28;20295;-70
2021/12/30 09:41:22;;;;;;;32.20;6.80;;;;;;;;;;5053023;28;20330;-70
2021/12/30 09:43:48;;;;;;;29.67;6.37;;;;;;;;;;5052820;28;20290;-70
2021/12/30 09:46:16;;;;;;;33.73;6.27;;;;;;;;;;5053041;28;20325;-70
2021/12/30 09:48:43;;;;;;;32.10;6.90;;;;;;;;;;5053160;28;20329;-70
2021/12/30 09:51:09;;;;;;;34.00;6.23;;;;;;;;;;5052763;28;20824;-70
2021/12/30 09:53:35;;;;;;;33.37;6.77;;;;;;;;;;5052626;28;20282;-70
2021/12/30 09:56:02;;;;;;;32.13;5.63;;;;;;;;;;5051395;28;20348;-70
2021/12/30 09:58:29;;;;;;;36.50;6.17;;;;;;;;;;5052922;28;20286;-70
2021/12/30 10:00:56;;;;;;;26.20;5.37;;;;;;;;;;5052586;28;20326;-70
2021/12/30 10:03:22;;;;;;;44.07;6.33;;;;;;;;;;5052901;28;20334;-70
2021/12/30 10:05:49;;;;;;;34.63;6.00;;;;;;;;;;5052781;28;20375;-69
2021/12/30 10:08:15;;;;;;;34.27;5.17;;;;;;;;;;5053039;28;20287;-70
2021/12/30 10:10:43;;;;;;;41.17;6.17;;;;;;;;;;5052813;28;20286;-70
2021/12/30 10:13:19;;;;;;;37.40;6.57;;;;;;;;;;5052679;28;20780;-70
2021/12/30 10:15:47;;;;;;;35.27;5.27;;;;;;;;;;5052854;28;20323;-70
2021/12/30 10:18:13;;;;;;;24.13;4.67;;;;;;;;;;5052516;28;20829;-70
2021/12/30 10:20:41;;;;;;;33.70;5.73;;;;;;;;;;5052711;28;20393;-70
2021/12/30 10:23:09;;;;;;;29.67;6.20;;;;;;;;;;5052580;28;20340;-69
2021/12/30 10:25:40;;;;;;;35.33;6.30;;;;;;;;;;5052714;28;20291;-69
2021/12/30 10:28:18;;;;;;;39.30;7.13;;;;;;;;;;5052467;28;20294;-70
2021/12/30 10:30:45;;;;;;;39.47;5.97;;;;;;;;;;5052758;28;20283;-69
2021/12/30 10:33:22;;;;;;;44.40;7.13;;;;;;;;;;5052399;28;20774;-70
2021/12/30 10:35:49;;;;;;;43.03;6.80;;;;;;;;;;5052634;28;20371;-69
2021/12/30 10:38:15;;;;;;;36.43;6.87;;;;;;;;;;5052374;28;20283;-70
2021/12/30 10:40:43;;;;;;;37.40;6.47;;;;;;;;;;5052521;28;20295;-70
2021/12/30 10:43:30;;;;;;;52.77;8.13;;;;;;;;;;5052377;28;20283;-70
2021/12/30 10:46:10;;;;;;;43.50;7.53;;;;;;;;;;5052475;28;20370;-70
2021/12/30 10:48:45;;;;;;;44.53;7.00;;;;;;;;;;5052569;28;20319;-70
2021/12/30 10:51:11;;;;;;;40.10;8.07;;;;;;;;;;5052383;28;20284;-70
2021/12/30 10:53:38;;;;;;;49.47;8.13;;;;;;;;;;5052811;28;20739;-70
2021/12/30 10:56:42;;;;;;;54.20;9.00;;;;;;;;;;5052240;28;20319;-70
2021/12/30 10:59:08;;;;;;;56.47;10.10;;;;;;;;;;4971257;28;20344;-70
2021/12/30 11:01:38;;;;;;;54.43;9.03;;;;;;;;;;4971375;28;20393;-70
2021/12/30 11:04:04;;;;;;;48.80;8.53;;;;;;;;;;5011458;28;20392;-70
2021/12/30 11:06:31;;;;;;;54.57;8.73;;;;;;;;;;5054740;28;20382;-69
2021/12/30 11:09:05;;;;;;;47.57;9.63;;;;;;;;;;5055767;28;20358;-70
2021/12/30 11:11:31;;;;;;;50.35;8.10;;;;;;;;;;5055869;28;20286;-69
2021/12/30 11:14:05;;;;;;;50.13;8.80;;;;;;;;;;5055608;28;20123;-70
2021/12/30 11:16:32;;;;;;;52.43;8.60;;;;;;;;;;5055763;28;20290;-70
2021/12/30 11:18:58;;;;;;;56.10;9.07;;;;;;;;;;5055530;28;20288;-70
2021/12/30 11:21:44;;;;;;;52.10;9.23;;;;;;;;;;5055586;28;20817;-69
2021/12/30 11:24:10;;;;;;;48.88;9.20;;;;;;;;;;5055439;28;20287;-69
2021/12/30 11:26:37;;;;;;;47.43;9.60;;;;;;;;;;5054328;28;20049;-69
2021/12/30 11:29:04;;;;;;;51.07;9.10;;;;;;;;;;5055444;28;20388;-70
2021/12/30 11:31:30;;;;;;;50.93;8.30;;;;;;;;;;5054466;28;20294;-70
2021/12/30 11:33:57;;;;;;;45.40;7.87;;;;;;;;;;5055529;28;20283;-69
2021/12/30 11:36:23;;;;;;;47.43;7.50;;;;;;;;;;5055906;28;20742;-70
2021/12/30 11:38:49;;;;;;;48.13;7.90;;;;;;;;;;5055310;28;20294;-69
2021/12/30 11:41:20;;;;;;;40.33;7.77;;;;;;;;;;5055058;28;20299;-70
2021/12/30 11:43:47;;;;;;;42.13;7.60;;;;;;;;;;5055278;28;20432;-70
2021/12/30 11:46:31;;;;;;;48.47;9.40;;;;;;;;;;5054994;28;20280;-69
2021/12/30 11:48:57;;;;;;;45.47;8.00;;;;;;;;;;5055199;28;20352;-69
2021/12/30 11:51:39;;;;;;;45.60;7.93;;;;;;;;;;5054923;28;20279;-69
2021/12/30 11:54:24;;;;;;;49.10;8.37;;;;;;;;;;5054977;28;20366;-69
2021/12/30 11:57:09;;;;;;;41.00;7.10;;;;;;;;;;5055048;28;20287;-69
2021/12/30 11:59:39;;;;;;;41.83;7.00;;;;;;;;;;5055223;28;20132;-69
2021/12/30 12:02:25;;;;;;;42.93;7.40;;;;;;;;;;5054719;28;20409;-70
2021/12/30 12:04:51;;;;;;;43.90;7.27;;;;;;;;;;5054732;28;20287;-69
2021/12/30 12:07:17;;;;;;;40.97;7.83;;;;;;;;;;5054649;28;20289;-69
2021/12/30 12:09:43;;;;;;;37.77;6.93;;;;;;;;;;5054777;28;20397;-69
2021/12/30 12:12:14;;;;;;;39.63;7.60;;;;;;;;;;5054548;28;20283;-70
2021/12/30 12:14:46;;;;;;;49.93;8.43;;;;;;;;;;5054749;28;20283;-69
2021/12/30 12:17:18;;;;;;;43.37;7.30;;;;;;;;;;5053663;28;20315;-69
2021/12/30 12:19:45;;;;;;;40.50;7.93;;;;;;;;;;5054534;28;20276;-69
2021/12/30 12:22:17;;;;;;;42.23;7.67;;;;;;;;;;5053102;28;20373;-70
2021/12/30 12:24:44;;;;;;;34.97;6.90;;;;;;;;;;5054513;28;20370;-69
2021/12/30 12:27:19;;;;;;;38.80;7.17;;;;;;;;;;5054201;28;20363;-69
2021/12/30 12:29:45;;;;;;;;;;;;;;;;;;5054953;28;20362;-69
2021/12/30 12:32:14;;;;;;;37.50;7.00;;;;;;;;;;5054101;28;19931;-69
2021/12/30 12:34:40;;;;;;;38.93;8.07;;;;;;;;;;5054299;28;20379;-69
2021/12/30 12:37:26;;;;;;;42.77;7.60;;;;;;;;;;5054080;28;20291;-69
2021/12/30 12:39:59;;;;;;;42.60;7.47;;;;;;;;;;5053976;28;20312;-69
2021/12/30 12:42:43;;;;;;;39.03;7.03;;;;;;;;;;5053965;28;20612;-69
2021/12/30 12:45:16;;;;;;;41.83;7.37;;;;;;;;;;5053855;28;20291;-69
2021/12/30 12:47:42;;;;;;;39.03;6.67;;;;;;;;;;5054045;28;20814;-69
2021/12/30 12:50:09;;;;;;;37.70;7.03;;;;;;;;;;5052924;28;20284;-70
2021/12/30 12:52:42;;;;;;;35.23;6.83;;;;;;;;;;5054253;28;20336;-69
2021/12/30 12:55:12;;;;;;;37.37;7.00;;;;;;;;;;5053728;28;20302;-70
2021/12/30 12:57:41;;;;;;;40.17;8.00;;;;;;;;;;5052823;28;20291;-69
2021/12/30 13:00:08;;;;;;;40.73;7.77;;;;;;;;;;5052679;28;20343;-70
2021/12/30 13:02:34;;;;;;;44.97;8.97;;;;;;;;;;5054032;28;20283;-69
2021/12/30 13:05:12;;;;;;;37.30;6.97;;;;;;;;;;5035839;28;20629;-69
2021/12/30 13:07:38;;;;;;;48.73;9.20;;;;;;;;;;5053617;28;20283;-69
2021/12/30 13:10:05;;;;;;;46.80;8.40;;;;;;;;;;5053713;28;20302;-69
2021/12/30 13:12:35;;;;;;;43.03;7.33;;;;;;;;;;5052431;28;20817;-69
2021/12/30 13:15:09;;;;;;;45.80;8.13;;;;;;;;;;5053702;28;20280;-69
2021/12/30 13:17:35;;;;;;;36.47;6.80;;;;;;;;;;5053738;28;20275;-69
2021/12/30 13:20:01;;;;;;;47.13;8.73;;;;;;;;;;5053501;28;20652;-69
2021/12/30 13:22:27;;;;;;;40.30;7.50;;;;;;;;;;5053196;28;20283;-69
2021/12/30 13:24:57;;;;;;;41.70;7.57;;;;;;;;;;5053565;28;20330;-69
2021/12/30 13:27:41;;;;;;;46.27;8.70;;;;;;;;;;5053508;28;20294;-69
2021/12/30 13:30:09;;;;;;;43.23;7.10;;;;;;;;;;5053066;28;20695;-69
2021/12/30 13:32:37;;;;;;;42.53;6.67;;;;;;;;;;5053393;28;20678;-69
2021/12/30 13:35:17;;;;;;;47.40;7.60;;;;;;;;;;5053194;28;20283;-69
2021/12/30 13:37:43;;;;;;;47.10;8.40;;;;;;;;;;5053249;28;20332;-69
2021/12/30 13:40:16;;;;;;;46.40;8.40;;;;;;;;;;5053103;28;20299;-69
2021/12/30 13:42:56;;;;;;;47.57;12.43;;;;;;;;;;5053313;28;20295;-69
2021/12/30 13:45:30;;;;;;;45.80;7.37;;;;;;;;;;5052599;28;20790;-69
2021/12/30 13:48:08;;;;;;;44.40;7.67;;;;;;;;;;5053084;28;20286;-69
2021/12/30 13:50:35;;;;;;;41.40;8.50;;;;;;;;;;5052830;28;20280;-69
2021/12/30 13:53:01;;;;;;;39.47;8.33;;;;;;;;;;5053012;28;20295;-69
2021/12/30 13:55:29;;;;;;;38.93;7.70;;;;;;;;;;5052768;28;20275;-69
2021/12/30 13:58:01;;;;;;;48.17;8.80;;;;;;;;;;5052979;28;20279;-69
2021/12/30 14:00:27;;;;;;;50.53;9.13;;;;;;;;;;5052636;28;20299;-69
2021/12/30 14:03:04;;;;;;;48.70;8.97;;;;;;;;;;5052668;28;20647;-69
2021/12/30 14:05:31;;;;;;;35.47;7.83;;;;;;;;;;5051379;28;20310;-69
2021/12/30 14:08:02;;;;;;;42.20;8.60;;;;;;;;;;5052878;28;20298;-69
2021/12/30 14:10:42;;;;;;;39.83;7.47;;;;;;;;;;5052681;28;20303;-70
2021/12/30 14:13:08;;;;;;;41.47;9.07;;;;;;;;;;5053063;28;20364;-69
2021/12/30 14:15:35;;;;;;;38.73;7.43;;;;;;;;;;5052599;28;20306;-69
2021/12/30 14:18:08;;;;;;;39.07;7.37;;;;;;;;;;5052767;28;20413;-69
2021/12/30 14:20:34;;;;;;;46.97;9.13;;;;;;;;;;5051265;28;20867;-69
2021/12/30 14:23:00;;;;;;;43.87;7.33;;;;;;;;;;5052724;28;20279;-69
2021/12/30 14:25:27;;;;;;;36.73;7.23;;;;;;;;;;5052486;28;20366;-69
2021/12/30 14:27:53;;;;;;;42.83;8.00;;;;;;;;;;5052513;28;20620;-69
2021/12/30 14:30:20;;;;;;;42.30;7.40;;;;;;;;;;5052525;28;20355;-69